Pagina principale
METAR-TAF:

METAR-TAF

Aeroporti :

Bric della Croce

Torino, Italia

latitudine: 45-02N, longitudine: 007-44E, altezza: 709 m

Osservazione

Il bollettino è stato emesso 46 minuti fa, alle 09:55 UTC
Vento 6 kt da nord
Temperature 13°C
Umidità 100%
Pressione 1019 hPa
Visibilità: 6000 m

METAR: LIMK 150955Z 01006KT 6000 NSC 13/13 Q1019 RMK SCT SCT070 VAL FOSCHIA VIS MIN 6000

Ora: 12:41 (10:41 UTC)


TAF: mancante

Osservazioni e previsioni meteorologiche di più di 4000 aeroporti (messaggi METAR e TAF).

Le stazioni disponibili sono rappresentate dai dischi gialli e rossi sulla carta.

Puntare il mouse per vedere il nome della stazione.

Clicca sopra per visualizzare le osservazioni e previsioni meteorologiche.

Per cambiare la mappa : fare clic sui pulsanti verdi con una croce nera per ingrandire, il pulsante verde con un trattino per diminuire, o sulla freccia verde per le mappe adiacenti.


METAR-TAF: